createdAt,value
2022-08-31T00:00:29.682Z,8.45
2022-08-31T00:03:15.393Z,9.20
2022-08-31T00:05:42.608Z,9.73
2022-08-31T00:08:09.847Z,8.48
2022-08-31T00:10:40.976Z,8.93
2022-08-31T00:13:10.415Z,8.82
2022-08-31T00:15:37.620Z,8.63
2022-08-31T00:18:05.689Z,8.10
2022-08-31T00:20:34.729Z,8.68
2022-08-31T00:23:06.138Z,9.18
2022-08-31T00:25:34.357Z,8.88
2022-08-31T00:28:01.972Z,8.15
2022-08-31T00:30:29.051Z,8.90
2022-08-31T00:32:57.116Z,8.82
2022-08-31T00:35:26.059Z,8.32
2022-08-31T00:37:53.224Z,8.57
2022-08-31T00:40:20.565Z,8.80
2022-08-31T00:42:47.812Z,10.02
2022-08-31T00:45:15.195Z,8.70
2022-08-31T00:47:45.078Z,7.80
2022-08-31T00:50:13.856Z,9.07
2022-08-31T00:52:43.828Z,9.50
2022-08-31T00:55:14.175Z,10.55
2022-08-31T00:57:43.583Z,9.60
2022-08-31T01:00:15.738Z,9.93
2022-08-31T01:02:42.899Z,9.15
2022-08-31T01:05:10.229Z,9.52
2022-08-31T01:07:37.732Z,8.98
2022-08-31T01:10:05.886Z,9.63
2022-08-31T01:12:33.094Z,10.00
2022-08-31T01:15:02.523Z,10.52
2022-08-31T01:17:30.083Z,10.20
2022-08-31T01:20:06.873Z,9.95
2022-08-31T01:22:47.509Z,8.60
2022-08-31T01:25:14.970Z,9.80
2022-08-31T01:27:42.110Z,10.15
2022-08-31T01:30:10.884Z,9.65
2022-08-31T01:32:38.846Z,9.80
2022-08-31T01:35:07.428Z,8.80
2022-08-31T01:37:38.759Z,9.30
2022-08-31T01:40:07.590Z,9.30
2022-08-31T01:42:34.789Z,9.20
2022-08-31T01:45:02.058Z,9.35
2022-08-31T01:47:29.563Z,8.73
2022-08-31T01:49:57.663Z,9.55
2022-08-31T01:52:27.721Z,9.00
2022-08-31T01:54:55.310Z,8.48
2022-08-31T01:57:33.651Z,8.77
2022-08-31T02:00:02.088Z,8.75
2022-08-31T02:02:29.240Z,10.25
2022-08-31T02:04:56.435Z,9.25
2022-08-31T02:07:23.558Z,9.85
2022-08-31T02:09:50.702Z,10.77
2022-08-31T02:12:18.168Z,9.98
2022-08-31T02:14:45.302Z,9.88
2022-08-31T02:17:12.419Z,9.73
2022-08-31T02:19:39.576Z,10.88
2022-08-31T02:22:06.693Z,12.02
2022-08-31T02:24:33.873Z,10.98
2022-08-31T02:27:01.049Z,10.05
2022-08-31T02:29:28.336Z,11.50
2022-08-31T02:31:55.699Z,10.90
2022-08-31T02:34:23.424Z,11.25
2022-08-31T02:36:50.536Z,9.80
2022-08-31T02:39:17.934Z,11.02
2022-08-31T02:41:45.798Z,10.25
2022-08-31T02:44:13.165Z,10.15
2022-08-31T02:46:40.331Z,10.82
2022-08-31T02:49:07.564Z,10.60
2022-08-31T02:51:37.337Z,10.20
2022-08-31T02:54:04.487Z,10.15
2022-08-31T02:56:31.748Z,9.88
2022-08-31T02:58:59.216Z,9.43
2022-08-31T03:01:26.616Z,9.90
2022-08-31T03:03:54.019Z,9.73
2022-08-31T03:06:22.741Z,10.05
2022-08-31T03:08:50.458Z,9.57
2022-08-31T03:11:18.045Z,9.63
2022-08-31T03:13:45.217Z,9.63
2022-08-31T03:16:13.534Z,9.70
2022-08-31T03:18:40.746Z,10.13
2022-08-31T03:21:08.047Z,9.73
2022-08-31T03:23:35.281Z,10.20
2022-08-31T03:26:05.483Z,9.75
2022-08-31T03:28:33.679Z,9.80
2022-08-31T03:31:00.974Z,9.60
2022-08-31T03:33:28.473Z,8.73
2022-08-31T03:35:55.606Z,8.80
2022-08-31T03:38:22.756Z,8.45
2022-08-31T03:40:51.022Z,9.80
2022-08-31T03:43:18.453Z,8.82
2022-08-31T03:45:45.669Z,9.52
2022-08-31T03:48:13.348Z,9.63
2022-08-31T03:50:41.247Z,9.85
2022-08-31T03:53:09.504Z,13.13
2022-08-31T03:55:40.061Z,11.18
2022-08-31T03:58:07.802Z,10.55
2022-08-31T04:00:34.997Z,10.90
2022-08-31T04:03:02.714Z,10.82
2022-08-31T04:05:30.885Z,11.10
2022-08-31T04:07:58.244Z,10.68
2022-08-31T04:10:25.883Z,9.93
2022-08-31T04:12:53.009Z,10.57
2022-08-31T04:15:21.069Z,10.55
2022-08-31T04:17:48.306Z,11.35
2022-08-31T04:20:17.107Z,10.77
2022-08-31T04:22:45.639Z,11.32
2022-08-31T04:25:12.778Z,10.60
2022-08-31T04:27:45.257Z,9.93
2022-08-31T04:30:12.711Z,10.30
2022-08-31T04:32:39.945Z,10.98
2022-08-31T04:35:08.494Z,11.07
2022-08-31T04:37:35.645Z,10.80
2022-08-31T04:40:04.818Z,10.63
2022-08-31T04:42:32.139Z,11.80
2022-08-31T04:44:59.699Z,9.63
2022-08-31T04:47:26.840Z,12.60
2022-08-31T04:49:53.958Z,13.52
2022-08-31T04:52:21.996Z,13.63
2022-08-31T04:54:55.767Z,12.45
2022-08-31T04:57:22.944Z,11.95
2022-08-31T04:59:51.173Z,10.60
2022-08-31T05:02:18.333Z,11.75
2022-08-31T05:04:45.464Z,13.40
2022-08-31T05:07:12.573Z,12.43
2022-08-31T05:09:41.848Z,13.05
2022-08-31T05:12:09.062Z,11.73
2022-08-31T05:14:37.118Z,10.95
2022-08-31T05:17:06.310Z,10.80
2022-08-31T05:19:42.512Z,9.48
2022-08-31T05:22:09.625Z,8.07
2022-08-31T05:24:38.891Z,11.63
2022-08-31T05:27:06.720Z,14.90
2022-08-31T05:29:33.841Z,13.40
2022-08-31T05:32:01.044Z,9.45
2022-08-31T05:34:28.191Z,7.13
2022-08-31T05:36:56.359Z,7.20
2022-08-31T05:39:24.027Z,7.53
2022-08-31T05:41:51.269Z,8.65
2022-08-31T05:44:21.294Z,7.60
2022-08-31T05:46:52.472Z,7.55
2022-08-31T05:49:28.493Z,6.60
2022-08-31T05:51:56.496Z,6.20
2022-08-31T05:54:23.629Z,6.25
2022-08-31T05:56:50.772Z,6.82
2022-08-31T05:59:17.920Z,6.60
2022-08-31T06:01:45.161Z,6.22
2022-08-31T06:04:12.597Z,8.25
2022-08-31T06:06:39.881Z,7.28
2022-08-31T06:09:07.630Z,7.40
2022-08-31T06:11:35.420Z,8.52
2022-08-31T06:14:03.625Z,7.85
2022-08-31T06:16:30.951Z,7.45
2022-08-31T06:18:58.829Z,6.97
2022-08-31T06:21:27.589Z,8.23
2022-08-31T06:23:57.310Z,9.40
2022-08-31T06:26:25.449Z,10.02
2022-08-31T06:28:53.637Z,8.50
2022-08-31T06:31:27.803Z,8.68
2022-08-31T06:33:55.987Z,9.35
2022-08-31T06:36:24.468Z,8.45
2022-08-31T06:38:51.682Z,9.18
2022-08-31T06:41:27.237Z,8.15
2022-08-31T06:43:55.575Z,7.50
2022-08-31T06:46:24.123Z,8.02
2022-08-31T06:48:54.358Z,8.05
2022-08-31T06:51:21.602Z,8.15
2022-08-31T06:53:48.830Z,7.38
2022-08-31T06:56:20.931Z,7.60
2022-08-31T06:58:48.833Z,7.40
2022-08-31T07:01:35.969Z,8.17
2022-08-31T07:04:04.922Z,8.00
2022-08-31T07:06:33.518Z,7.30
2022-08-31T07:09:03.566Z,7.72
2022-08-31T07:11:33.807Z,8.18
2022-08-31T07:14:01.750Z,8.35
2022-08-31T07:16:29.006Z,7.43
2022-08-31T07:18:58.676Z,8.55
2022-08-31T07:21:30.065Z,11.82
2022-08-31T07:23:58.744Z,12.95
2022-08-31T07:26:27.798Z,12.05
2022-08-31T07:28:58.583Z,12.98
2022-08-31T07:31:30.332Z,12.07
2022-08-31T07:33:57.511Z,12.80
2022-08-31T07:36:25.667Z,11.38
2022-08-31T07:39:11.488Z,11.70
2022-08-31T07:41:57.108Z,10.88
2022-08-31T07:44:25.146Z,11.07
2022-08-31T07:46:55.276Z,11.25
2022-08-31T07:49:22.662Z,11.35
2022-08-31T07:51:51.010Z,11.80
2022-08-31T07:54:24.112Z,13.10
2022-08-31T07:56:52.916Z,11.43
2022-08-31T07:59:20.975Z,12.48
2022-08-31T08:01:48.402Z,11.88
2022-08-31T08:04:21.762Z,12.60
2022-08-31T08:06:49.618Z,12.90
2022-08-31T08:09:24.536Z,13.77
2022-08-31T08:11:55.845Z,13.25
2022-08-31T08:14:30.300Z,14.45
2022-08-31T08:16:57.699Z,15.05
2022-08-31T08:19:25.042Z,15.65
2022-08-31T08:21:52.656Z,15.93
2022-08-31T08:24:20.076Z,15.75
2022-08-31T08:26:53.467Z,16.08
2022-08-31T08:29:21.372Z,17.60
2022-08-31T08:31:56.169Z,16.23
2022-08-31T08:34:32.377Z,15.10
2022-08-31T08:37:00.201Z,16.63
2022-08-31T08:39:27.584Z,15.07
2022-08-31T08:41:57.825Z,14.15
2022-08-31T08:44:27.314Z,16.48
2022-08-31T08:46:57.388Z,16.75
2022-08-31T08:49:38.370Z,16.58
2022-08-31T08:52:11.143Z,16.35
2022-08-31T08:54:42.473Z,17.00
2022-08-31T08:57:21.358Z,19.10
2022-08-31T08:59:51.063Z,17.23
2022-08-31T09:02:21.934Z,16.90
2022-08-31T09:04:59.903Z,15.95
2022-08-31T09:07:42.429Z,18.13
2022-08-31T09:10:28.302Z,18.20
2022-08-31T09:13:09.161Z,17.77
2022-08-31T09:15:49.843Z,16.95
2022-08-31T09:18:17.203Z,18.33
2022-08-31T09:20:44.308Z,17.33
2022-08-31T09:23:14.386Z,19.23
2022-08-31T09:25:52.194Z,18.67
2022-08-31T09:28:34.191Z,18.00
2022-08-31T09:31:01.343Z,17.05
2022-08-31T09:33:35.698Z,18.80
2022-08-31T09:36:14.298Z,19.35
2022-08-31T09:38:42.159Z,19.40
2022-08-31T09:41:33.370Z,18.42
2022-08-31T09:44:19.500Z,18.75
2022-08-31T09:46:50.982Z,17.17
2022-08-31T09:49:22.714Z,17.30
2022-08-31T09:51:49.888Z,15.45
2022-08-31T09:54:35.551Z,14.00
2022-08-31T09:57:04.044Z,14.63
2022-08-31T09:59:42.092Z,12.75
2022-08-31T10:02:13.817Z,13.40
2022-08-31T10:04:51.228Z,14.10
2022-08-31T10:07:25.031Z,14.55
2022-08-31T10:09:58.088Z,12.05
2022-08-31T10:12:31.567Z,12.73
2022-08-31T10:15:05.637Z,12.05
2022-08-31T10:17:45.418Z,12.00
2022-08-31T10:20:18.614Z,9.70
2022-08-31T10:22:56.142Z,11.68
2022-08-31T10:25:40.696Z,9.43
2022-08-31T10:28:31.715Z,10.05
2022-08-31T10:31:01.049Z,8.70
2022-08-31T10:33:55.030Z,9.45
2022-08-31T10:36:25.295Z,8.23
2022-08-31T10:38:54.263Z,8.40
2022-08-31T10:41:30.704Z,9.73
2022-08-31T10:44:04.464Z,7.70
2022-08-31T10:46:34.587Z,6.97
2022-08-31T10:49:05.712Z,7.03
2022-08-31T10:51:38.870Z,6.68
2022-08-31T10:54:12.977Z,6.63
2022-08-31T10:56:59.214Z,6.43
2022-08-31T10:59:27.717Z,6.65
2022-08-31T11:02:03.461Z,5.57
2022-08-31T11:04:37.956Z,5.57
2022-08-31T11:07:12.328Z,4.40
2022-08-31T11:09:42.531Z,4.20
2022-08-31T11:12:13.576Z,4.60
2022-08-31T11:14:49.918Z,4.10
2022-08-31T11:17:26.130Z,3.72
2022-08-31T11:20:08.651Z,3.20
2022-08-31T11:22:56.996Z,2.72
2022-08-31T11:25:40.186Z,1.77
2022-08-31T11:28:10.588Z,1.52
2022-08-31T11:30:42.390Z,1.33
2022-08-31T11:33:19.654Z,1.80
2022-08-31T11:35:49.981Z,1.50
2022-08-31T11:38:36.291Z,1.65
2022-08-31T11:41:04.134Z,1.30
2022-08-31T11:43:34.301Z,0.70
2022-08-31T11:46:26.444Z,0.82
2022-08-31T11:48:54.980Z,0.90
2022-08-31T11:51:40.769Z,0.77
2022-08-31T11:54:13.501Z,1.08
2022-08-31T11:56:44.462Z,0.90
2022-08-31T11:59:20.989Z,1.00
2022-08-31T12:01:48.155Z,0.80
2022-08-31T12:04:46.223Z,0.88
2022-08-31T12:07:32.381Z,0.70
2022-08-31T12:09:59.461Z,1.00
2022-08-31T12:12:27.765Z,0.60
2022-08-31T12:14:56.756Z,0.98
2022-08-31T12:17:30.635Z,0.90
2022-08-31T12:20:16.357Z,1.00
2022-08-31T12:23:02.041Z,1.08
2022-08-31T12:25:36.020Z,0.70
2022-08-31T12:28:06.685Z,0.93
2022-08-31T12:30:33.845Z,1.05
2022-08-31T12:33:05.124Z,0.63
2022-08-31T12:35:33.469Z,0.90
2022-08-31T12:38:02.690Z,1.00
2022-08-31T12:40:48.596Z,0.90
2022-08-31T12:43:18.107Z,1.02
2022-08-31T12:45:45.341Z,0.93
2022-08-31T12:48:24.507Z,1.00
2022-08-31T12:51:03.529Z,1.10
2022-08-31T12:53:49.173Z,0.93
2022-08-31T12:56:19.290Z,0.70
2022-08-31T12:58:59.421Z,0.80
2022-08-31T13:01:27.439Z,0.88
2022-08-31T13:03:56.868Z,0.82
2022-08-31T13:06:28.861Z,0.80
2022-08-31T13:08:56.544Z,0.70
2022-08-31T13:11:23.743Z,0.98
2022-08-31T13:13:51.839Z,1.10
2022-08-31T13:16:19.339Z,0.90
2022-08-31T13:18:46.869Z,0.95
2022-08-31T13:21:20.184Z,0.98
2022-08-31T13:23:48.674Z,0.80
2022-08-31T13:26:21.608Z,1.10
2022-08-31T13:28:51.073Z,0.70
2022-08-31T13:31:25.023Z,1.00
2022-08-31T13:33:57.009Z,0.75
2022-08-31T13:36:32.254Z,0.90
2022-08-31T13:39:02.933Z,0.60
2022-08-31T13:41:36.819Z,0.75
2022-08-31T13:44:06.014Z,0.93
2022-08-31T13:46:43.259Z,0.82
2022-08-31T13:49:26.059Z,0.88
2022-08-31T13:51:53.363Z,0.77
2022-08-31T13:54:31.573Z,0.90
2022-08-31T13:57:09.893Z,1.00
2022-08-31T13:59:39.294Z,0.93
2022-08-31T14:02:30.848Z,0.93
2022-08-31T14:05:05.841Z,0.88
2022-08-31T14:07:45.728Z,0.90
2022-08-31T14:10:22.296Z,0.65
2022-08-31T14:13:18.376Z,0.75
2022-08-31T14:15:55.053Z,0.80
2022-08-31T14:18:25.013Z,1.10
2022-08-31T14:21:19.887Z,0.95
2022-08-31T14:23:59.035Z,0.90
2022-08-31T14:26:28.107Z,0.82
2022-08-31T14:29:03.584Z,0.80
2022-08-31T14:31:44.190Z,0.90
2022-08-31T14:34:20.389Z,1.00
2022-08-31T14:36:54.661Z,0.75
2022-08-31T14:39:45.603Z,0.98
2022-08-31T14:42:18.664Z,0.90
2022-08-31T14:44:48.035Z,0.98
2022-08-31T14:47:15.141Z,0.80
2022-08-31T14:49:45.371Z,0.75
2022-08-31T14:52:13.051Z,0.90
2022-08-31T14:54:41.234Z,1.08
2022-08-31T14:57:13.663Z,0.85
2022-08-31T14:59:43.732Z,0.80
2022-08-31T15:02:12.883Z,0.90
2022-08-31T15:04:45.590Z,1.00
2022-08-31T15:07:13.339Z,1.00
2022-08-31T15:09:41.428Z,0.95
2022-08-31T15:12:09.951Z,0.90
2022-08-31T15:14:42.357Z,0.90
2022-08-31T15:17:13.001Z,0.75
2022-08-31T15:19:46.508Z,0.90
2022-08-31T15:22:15.953Z,1.02
2022-08-31T15:24:45.240Z,0.70
2022-08-31T15:27:16.341Z,0.82
2022-08-31T15:29:45.516Z,0.68
2022-08-31T15:32:17.316Z,0.82
2022-08-31T15:34:49.978Z,0.70
2022-08-31T15:37:17.603Z,0.70
2022-08-31T15:39:49.140Z,0.88
2022-08-31T15:42:20.773Z,0.90
2022-08-31T15:44:58.278Z,0.85
2022-08-31T15:47:45.626Z,0.70
2022-08-31T15:50:12.950Z,1.00
2022-08-31T15:52:50.973Z,0.80
2022-08-31T15:55:23.573Z,0.73
2022-08-31T15:57:54.524Z,1.05
2022-08-31T16:00:26.369Z,0.73
2022-08-31T16:02:57.687Z,1.05
2022-08-31T16:05:28.627Z,0.93
2022-08-31T16:07:57.422Z,0.60
2022-08-31T16:10:27.920Z,0.80
2022-08-31T16:12:55.600Z,1.00
2022-08-31T16:15:24.928Z,0.80
2022-08-31T16:17:57.755Z,0.70
2022-08-31T16:20:27.563Z,0.75
2022-08-31T16:22:55.109Z,0.73
2022-08-31T16:25:22.747Z,0.70
2022-08-31T16:27:50.815Z,0.68
2022-08-31T16:30:18.711Z,0.75
2022-08-31T16:32:50.386Z,1.30
2022-08-31T16:35:19.692Z,1.35
2022-08-31T16:37:47.035Z,0.85
2022-08-31T16:40:14.675Z,1.23
2022-08-31T16:42:43.682Z,1.75
2022-08-31T16:45:11.294Z,1.00
2022-08-31T16:47:38.677Z,1.20
2022-08-31T16:50:08.870Z,1.10
2022-08-31T16:52:36.548Z,1.17
2022-08-31T16:55:04.870Z,0.85
2022-08-31T16:57:32.864Z,1.02
2022-08-31T17:00:00.556Z,1.02
2022-08-31T17:02:28.068Z,0.90
2022-08-31T17:05:00.689Z,1.10
2022-08-31T17:07:29.125Z,1.30
2022-08-31T17:09:57.996Z,0.90
2022-08-31T17:12:27.459Z,1.20
2022-08-31T17:14:56.167Z,0.55
2022-08-31T17:17:24.885Z,0.90
2022-08-31T17:19:53.319Z,1.00
2022-08-31T17:22:30.039Z,0.90
2022-08-31T17:25:03.120Z,0.77
2022-08-31T17:27:32.348Z,0.85
2022-08-31T17:30:06.097Z,1.10
2022-08-31T17:32:37.336Z,0.90
2022-08-31T17:35:12.875Z,1.00
2022-08-31T17:37:42.135Z,0.98
2022-08-31T17:40:10.014Z,0.77
2022-08-31T17:42:37.413Z,0.98
2022-08-31T17:45:06.487Z,0.90
2022-08-31T17:47:33.928Z,0.80
2022-08-31T17:50:01.499Z,1.00
2022-08-31T17:52:28.944Z,0.70
2022-08-31T17:54:56.610Z,0.90
2022-08-31T17:57:25.366Z,1.15
2022-08-31T17:59:53.503Z,0.90
2022-08-31T18:02:23.193Z,1.00
2022-08-31T18:04:52.462Z,0.93
2022-08-31T18:07:20.123Z,1.25
2022-08-31T18:09:47.547Z,1.00
2022-08-31T18:12:16.021Z,1.35
2022-08-31T18:14:43.576Z,1.15
2022-08-31T18:17:12.922Z,1.27
2022-08-31T18:19:40.673Z,1.10
2022-08-31T18:22:08.257Z,1.45
2022-08-31T18:24:36.680Z,1.30
2022-08-31T18:27:07.222Z,1.20
2022-08-31T18:29:36.302Z,0.80
2022-08-31T18:32:04.494Z,1.30
2022-08-31T18:34:33.138Z,1.30
2022-08-31T18:37:00.983Z,1.15
2022-08-31T18:39:51.134Z,1.67
2022-08-31T18:42:37.566Z,1.67
2022-08-31T18:45:19.594Z,1.60
2022-08-31T18:48:13.724Z,1.42
2022-08-31T18:50:39.430Z,1.95
2022-08-31T18:53:10.902Z,1.90
2022-08-31T18:55:42.774Z,1.67
2022-08-31T18:58:10.320Z,1.50
2022-08-31T19:00:38.040Z,1.42
2022-08-31T19:03:06.015Z,1.40
2022-08-31T19:05:33.352Z,1.60
2022-08-31T19:08:00.821Z,1.25
2022-08-31T19:10:28.170Z,1.90
2022-08-31T19:12:55.950Z,1.60
2022-08-31T19:15:25.573Z,1.52
2022-08-31T19:18:00.877Z,1.73
2022-08-31T19:20:29.633Z,1.45
2022-08-31T19:22:57.236Z,1.80
2022-08-31T19:25:24.928Z,1.60
2022-08-31T19:27:52.719Z,1.70
2022-08-31T19:30:25.827Z,1.80
2022-08-31T19:32:56.583Z,1.60
2022-08-31T19:35:27.060Z,1.80
2022-08-31T19:37:56.659Z,1.60
2022-08-31T19:40:35.542Z,1.80
2022-08-31T19:45:50.876Z,2.03
2022-08-31T19:48:23.397Z,1.67
2022-08-31T19:50:51.609Z,1.83
2022-08-31T19:53:21.287Z,1.75
2022-08-31T19:55:51.227Z,1.60
2022-08-31T19:58:20.144Z,1.67
2022-08-31T20:00:48.937Z,1.92
2022-08-31T20:03:19.452Z,1.65
2022-08-31T20:05:47.419Z,2.00
2022-08-31T20:08:14.691Z,1.90
2022-08-31T20:10:46.353Z,2.17
2022-08-31T20:13:14.482Z,1.88
2022-08-31T20:15:43.037Z,1.63
2022-08-31T20:18:12.187Z,1.80
2022-08-31T20:20:43.470Z,1.90
2022-08-31T20:23:13.804Z,1.63
2022-08-31T20:25:41.160Z,1.60
2022-08-31T20:28:08.503Z,2.05
2022-08-31T20:30:37.118Z,1.95
2022-08-31T20:33:07.640Z,1.73
2022-08-31T20:35:36.615Z,1.90
2022-08-31T20:38:03.888Z,1.75
2022-08-31T20:40:31.209Z,1.85
2022-08-31T20:42:58.824Z,1.80
2022-08-31T20:45:26.077Z,2.33
2022-08-31T20:48:11.861Z,1.50
2022-08-31T20:50:42.779Z,1.45
2022-08-31T20:53:18.652Z,1.60
2022-08-31T20:56:06.069Z,1.75
2022-08-31T20:58:33.131Z,2.17
2022-08-31T21:01:03.724Z,1.90
2022-08-31T21:03:30.907Z,2.28
2022-08-31T21:06:01.684Z,2.13
2022-08-31T21:08:28.789Z,2.45
2022-08-31T21:10:55.929Z,2.15
2022-08-31T21:13:23.073Z,1.88
2022-08-31T21:15:50.791Z,2.03
2022-08-31T21:18:18.065Z,1.60
2022-08-31T21:20:46.136Z,2.20
2022-08-31T21:23:13.522Z,1.70
2022-08-31T21:25:44.932Z,1.70
2022-08-31T21:28:17.413Z,1.98
2022-08-31T21:30:47.140Z,2.15
2022-08-31T21:33:14.408Z,2.30
2022-08-31T21:35:41.487Z,1.60
2022-08-31T21:38:09.861Z,2.08
2022-08-31T21:40:37.186Z,2.08
2022-08-31T21:43:05.093Z,2.10
2022-08-31T21:45:32.204Z,1.73
2022-08-31T21:47:59.297Z,2.20
2022-08-31T21:50:28.557Z,1.90
2022-08-31T21:53:00.091Z,2.22
2022-08-31T21:55:28.012Z,2.00
2022-08-31T21:57:55.276Z,2.22
2022-08-31T22:00:29.425Z,2.58
2022-08-31T22:02:56.608Z,2.17
2022-08-31T22:05:23.831Z,1.70
2022-08-31T22:07:50.953Z,2.20
2022-08-31T22:10:18.113Z,2.45
2022-08-31T22:12:45.297Z,1.90
2022-08-31T22:15:16.804Z,2.13
2022-08-31T22:18:05.949Z,2.13
2022-08-31T22:20:33.518Z,1.80
2022-08-31T22:23:01.660Z,2.22
2022-08-31T22:25:28.904Z,2.30
2022-08-31T22:28:00.764Z,1.80
2022-08-31T22:30:28.207Z,2.45
2022-08-31T22:32:55.576Z,2.28
2022-08-31T22:35:22.818Z,2.10
2022-08-31T22:37:52.678Z,2.15
2022-08-31T22:40:22.370Z,2.35
2022-08-31T22:42:50.540Z,2.38
2022-08-31T22:45:18.261Z,2.90
2022-08-31T22:47:50.245Z,2.50
2022-08-31T22:50:17.617Z,2.25
2022-08-31T22:52:44.725Z,2.38
2022-08-31T22:55:11.921Z,2.28
2022-08-31T22:57:39.557Z,1.95
2022-08-31T23:00:14.500Z,2.35
2022-08-31T23:02:45.416Z,2.50
2022-08-31T23:05:14.145Z,2.22
2022-08-31T23:07:42.573Z,2.85
2022-08-31T23:10:17.011Z,2.47
2022-08-31T23:12:44.998Z,2.58
2022-08-31T23:15:12.952Z,2.47
2022-08-31T23:17:44.332Z,2.53
2022-08-31T23:20:12.998Z,2.40
2022-08-31T23:22:40.116Z,2.33
2022-08-31T23:25:07.623Z,2.53
2022-08-31T23:27:36.217Z,2.63
2022-08-31T23:30:03.636Z,2.72
2022-08-31T23:32:33.684Z,2.58
2022-08-31T23:35:01.493Z,2.72
2022-08-31T23:37:30.370Z,2.92
2022-08-31T23:39:58.625Z,2.42
2022-08-31T23:42:27.136Z,2.75
2022-08-31T23:44:54.665Z,2.80
2022-08-31T23:47:23.045Z,3.40
2022-08-31T23:49:51.389Z,2.92
2022-08-31T23:52:21.438Z,2.50
2022-08-31T23:54:50.200Z,2.67
2022-08-31T23:57:32.947Z,2.30
